Time;durP1;ratioP1;P1;durP2;ratioP2;P2;SDS_P1;SDS_P2;PMS_P1;PMS_P2;Temp;Humidity;BMP_temperature;BMP_pressure;BME280_temperature;BME280_humidity;BME280_pressure;Samples;Min_cycle;Max_cycle;Signal;HPM_P1;HPM_P2
2023/05/29 00:02:54;;;;;;;8.53;5.07;;;;;;;;;;5035279;28;20216;-73
2023/05/29 00:06:00;;;;;;;9.77;5.20;;;;;;;;;;5036157;28;20517;-73
2023/05/29 00:09:04;;;;;;;15.17;5.43;;;;;;;;;;5035774;28;20180;-73
2023/05/29 00:12:09;;;;;;;10.10;5.07;;;;;;;;;;5035784;28;20216;-73
2023/05/29 00:15:13;;;;;;;6.17;4.80;;;;;;;;;;5034749;28;20200;-73
2023/05/29 00:18:17;;;;;;;7.00;4.10;;;;;;;;;;5035464;28;20180;-73
2023/05/29 00:21:21;;;;;;;9.77;4.63;;;;;;;;;;5035940;28;20212;-73
2023/05/29 00:24:26;;;;;;;7.60;4.60;;;;;;;;;;5034913;28;20521;-73
2023/05/29 00:27:30;;;;;;;8.13;4.60;;;;;;;;;;5034504;28;20181;-73
2023/05/29 00:30:34;;;;;;;6.67;4.70;;;;;;;;;;5023397;28;20177;-73
2023/05/29 00:33:38;;;;;;;7.50;4.67;;;;;;;;;;5034417;28;20236;-73
2023/05/29 00:36:42;;;;;;;6.87;4.40;;;;;;;;;;5034908;28;20181;-73
2023/05/29 00:39:47;;;;;;;8.63;5.50;;;;;;;;;;5034303;28;20204;-73
2023/05/29 00:42:52;;;;;;;7.97;4.67;;;;;;;;;;5034203;28;20212;-73
2023/05/29 00:45:56;;;;;;;11.60;4.90;;;;;;;;;;5034745;28;20177;-73
2023/05/29 00:49:00;;;;;;;8.97;5.00;;;;;;;;;;5035026;28;20177;-73
2023/05/29 00:52:07;;;;;;;8.10;4.70;;;;;;;;;;5034228;28;20217;-73
2023/05/29 00:55:11;;;;;;;7.33;4.70;;;;;;;;;;5034151;28;20201;-73
2023/05/29 00:58:15;;;;;;;6.57;4.43;;;;;;;;;;5035008;28;20180;-73
2023/05/29 01:01:21;;;;;;;7.53;4.80;;;;;;;;;;5034875;28;20208;-73
2023/05/29 01:04:27;;;;;;;7.07;4.67;;;;;;;;;;5022733;28;20197;-72
2023/05/29 01:07:32;;;;;;;7.03;4.80;;;;;;;;;;5034045;28;20185;-73
2023/05/29 01:10:36;;;;;;;9.00;4.87;;;;;;;;;;5035057;28;20185;-73
2023/05/29 01:13:45;;;;;;;9.87;5.70;;;;;;;;;;5021537;28;20552;-73
2023/05/29 01:17:03;;;;;;;7.33;5.27;;;;;;;;;;5022394;28;20189;-73
2023/05/29 01:20:22;;;;;;;8.77;4.83;;;;;;;;;;5034312;28;20213;-73
2023/05/29 01:23:50;;;;;;;9.60;4.70;;;;;;;;;;5034707;28;20221;-73
2023/05/29 01:27:04;;;;;;;8.37;5.03;;;;;;;;;;5022047;28;20196;-73
2023/05/29 01:30:09;;;;;;;7.50;4.60;;;;;;;;;;5034206;28;20181;-73
2023/05/29 01:33:13;;;;;;;7.10;4.40;;;;;;;;;;5033176;28;20573;-73
2023/05/29 01:36:17;;;;;;;10.60;4.80;;;;;;;;;;5033555;28;20200;-72
2023/05/29 01:39:23;;;;;;;9.30;4.80;;;;;;;;;;5021833;28;20181;-73
2023/05/29 01:42:28;;;;;;;7.93;5.43;;;;;;;;;;5034052;28;20213;-73
2023/05/29 01:45:33;;;;;;;9.20;5.63;;;;;;;;;;5033377;28;20181;-72
2023/05/29 01:48:37;;;;;;;11.10;5.73;;;;;;;;;;5021863;28;20201;-73
2023/05/29 01:51:42;;;;;;;9.60;5.00;;;;;;;;;;5021925;28;20193;-73
2023/05/29 01:54:47;;;;;;;9.57;4.80;;;;;;;;;;5033216;28;20176;-72
2023/05/29 01:57:51;;;;;;;10.63;5.47;;;;;;;;;;5033165;28;20199;-72
2023/05/29 02:00:57;;;;;;;7.60;5.00;;;;;;;;;;5033043;28;20213;-72
2023/05/29 02:04:01;;;;;;;11.03;5.30;;;;;;;;;;5021402;28;20557;-73
2023/05/29 02:07:06;;;;;;;7.27;4.70;;;;;;;;;;5032730;28;20204;-72
2023/05/29 02:10:10;;;;;;;6.60;4.43;;;;;;;;;;5033395;28;20188;-72
2023/05/29 02:13:14;;;;;;;7.10;4.60;;;;;;;;;;5033318;28;20220;-73
2023/05/29 02:16:20;;;;;;;8.47;5.43;;;;;;;;;;5033197;28;20541;-72
2023/05/29 02:19:27;;;;;;;7.70;4.40;;;;;;;;;;5021584;28;20176;-72
2023/05/29 02:22:32;;;;;;;6.43;4.97;;;;;;;;;;5032680;28;20552;-73
2023/05/29 02:25:36;;;;;;;7.53;4.97;;;;;;;;;;5032217;28;20177;-72
2023/05/29 02:28:41;;;;;;;10.03;4.93;;;;;;;;;;5032431;28;20177;-72
2023/05/29 02:31:45;;;;;;;7.80;4.57;;;;;;;;;;5021174;28;20169;-73
2023/05/29 02:34:49;;;;;;;9.73;4.67;;;;;;;;;;5032222;28;20220;-73
2023/05/29 02:37:54;;;;;;;9.60;5.00;;;;;;;;;;5021183;28;20209;-73
2023/05/29 02:40:58;;;;;;;6.70;4.90;;;;;;;;;;5032094;28;20212;-72
2023/05/29 02:44:03;;;;;;;8.03;5.63;;;;;;;;;;5020882;28;20216;-73
2023/05/29 02:47:07;;;;;;;7.63;4.80;;;;;;;;;;5032126;28;20172;-73
2023/05/29 02:50:14;;;;;;;8.30;5.33;;;;;;;;;;5021261;28;20177;-73
2023/05/29 02:53:18;;;;;;;7.40;4.80;;;;;;;;;;5032220;28;20212;-73
2023/05/29 02:56:23;;;;;;;8.40;4.80;;;;;;;;;;5033144;28;20180;-73
2023/05/29 02:59:28;;;;;;;9.27;5.50;;;;;;;;;;5020969;28;20620;-73
2023/05/29 03:02:35;;;;;;;9.60;5.80;;;;;;;;;;5032073;28;20212;-73
2023/05/29 03:05:39;;;;;;;10.67;5.53;;;;;;;;;;5020602;28;20192;-73
2023/05/29 03:08:44;;;;;;;10.33;5.63;;;;;;;;;;5032258;28;20639;-73
2023/05/29 03:11:50;;;;;;;10.57;5.10;;;;;;;;;;5032838;28;20517;-73
2023/05/29 03:14:56;;;;;;;8.80;4.90;;;;;;;;;;5021108;28;20181;-73
2023/05/29 03:18:00;;;;;;;12.37;5.57;;;;;;;;;;5031966;28;20184;-73
2023/05/29 03:21:07;;;;;;;7.63;4.70;;;;;;;;;;5031832;28;20208;-72
2023/05/29 03:24:14;;;;;;;11.73;5.03;;;;;;;;;;5020533;28;20511;-73
2023/05/29 03:27:18;;;;;;;11.40;5.57;;;;;;;;;;5020325;28;20197;-73
2023/05/29 03:30:25;;;;;;;9.93;4.83;;;;;;;;;;5031760;28;20537;-72
2023/05/29 03:33:31;;;;;;;8.87;5.07;;;;;;;;;;5043084;28;20695;-73
2023/05/29 03:36:56;;;;;;;9.80;5.37;;;;;;;;;;5033286;28;20177;-73
2023/05/29 03:40:02;;;;;;;7.77;4.67;;;;;;;;;;5024177;28;20197;-73
2023/05/29 03:43:07;;;;;;;7.50;5.10;;;;;;;;;;5035449;28;20212;-73
2023/05/29 03:46:11;;;;;;;8.97;5.33;;;;;;;;;;5035203;28;20628;-73
2023/05/29 03:49:16;;;;;;;9.43;4.80;;;;;;;;;;5035386;28;20184;-72
2023/05/29 03:52:20;;;;;;;9.37;4.80;;;;;;;;;;5023806;28;20221;-72
2023/05/29 03:55:26;;;;;;;7.47;5.20;;;;;;;;;;5024336;28;20509;-72
2023/05/29 03:58:31;;;;;;;12.50;5.03;;;;;;;;;;5035481;28;20189;-72
2023/05/29 04:01:36;;;;;;;8.90;4.70;;;;;;;;;;5024146;28;20204;-73
2023/05/29 04:04:41;;;;;;;9.63;5.23;;;;;;;;;;5035118;28;20196;-72
2023/05/29 04:07:46;;;;;;;6.73;4.73;;;;;;;;;;5035076;28;20173;-72
2023/05/29 04:10:53;;;;;;;9.03;5.20;;;;;;;;;;5012693;28;20172;-72
2023/05/29 04:13:58;;;;;;;8.37;4.70;;;;;;;;;;5034638;28;20212;-72
2023/05/29 04:17:04;;;;;;;6.63;4.20;;;;;;;;;;5034738;28;20525;-72
2023/05/29 04:20:09;;;;;;;8.70;4.93;;;;;;;;;;5035886;28;20177;-72
2023/05/29 04:23:14;;;;;;;8.23;5.10;;;;;;;;;;5034426;28;20205;-72
2023/05/29 04:26:24;;;;;;;5.70;4.17;;;;;;;;;;5023300;28;20200;-72
2023/05/29 04:29:29;;;;;;;8.70;5.03;;;;;;;;;;5034660;28;20177;-72
2023/05/29 04:32:34;;;;;;;7.00;4.37;;;;;;;;;;5034480;28;20208;-73
2023/05/29 04:35:38;;;;;;;5.60;4.33;;;;;;;;;;5035067;28;20204;-73
2023/05/29 04:38:47;;;;;;;8.53;5.03;;;;;;;;;;5034195;28;20177;-72
2023/05/29 04:41:51;;;;;;;8.40;4.57;;;;;;;;;;5034483;28;20224;-73
2023/05/29 04:45:00;;;;;;;7.90;5.00;;;;;;;;;;5034435;28;20181;-73
2023/05/29 04:48:04;;;;;;;9.47;5.20;;;;;;;;;;5022668;28;20181;-73
2023/05/29 04:51:10;;;;;;;11.73;5.43;;;;;;;;;;5034264;28;20177;-72
2023/05/29 04:54:16;;;;;;;9.30;5.17;;;;;;;;;;5034082;28;20185;-72
2023/05/29 04:57:20;;;;;;;7.47;4.60;;;;;;;;;;5034118;28;20181;-72
2023/05/29 05:00:26;;;;;;;9.53;4.83;;;;;;;;;;5022764;28;20180;-72
2023/05/29 05:03:31;;;;;;;9.90;4.90;;;;;;;;;;5045312;28;20217;-72
2023/05/29 05:06:35;;;;;;;8.37;4.73;;;;;;;;;;5022878;28;20173;-72
2023/05/29 05:09:39;;;;;;;8.40;4.60;;;;;;;;;;5022341;28;20181;-72
2023/05/29 05:12:46;;;;;;;7.27;5.33;;;;;;;;;;5022839;28;20208;-72
2023/05/29 05:15:52;;;;;;;9.23;5.03;;;;;;;;;;5022414;28;20180;-72
2023/05/29 05:18:56;;;;;;;8.53;5.00;;;;;;;;;;5033927;28;20185;-72
2023/05/29 05:22:01;;;;;;;8.37;5.67;;;;;;;;;;5033495;28;20212;-72
2023/05/29 05:25:06;;;;;;;8.20;5.03;;;;;;;;;;5022031;28;20196;-72
2023/05/29 05:28:10;;;;;;;9.43;5.23;;;;;;;;;;5022120;28;20184;-72
2023/05/29 05:31:14;;;;;;;7.27;4.97;;;;;;;;;;5022181;28;20185;-72
2023/05/29 05:34:19;;;;;;;8.10;5.30;;;;;;;;;;5033295;28;20208;-72
2023/05/29 05:37:23;;;;;;;10.00;5.03;;;;;;;;;;5033368;28;20193;-73
2023/05/29 05:40:28;;;;;;;8.13;5.03;;;;;;;;;;5033609;28;20176;-72
2023/05/29 05:43:38;;;;;;;9.17;4.83;;;;;;;;;;5032885;28;20212;-72
2023/05/29 05:46:49;;;;;;;7.80;5.60;;;;;;;;;;5022531;28;20196;-74
2023/05/29 05:49:54;;;;;;;10.20;4.43;;;;;;;;;;5034027;28;20631;-72
2023/05/29 05:52:58;;;;;;;8.27;5.03;;;;;;;;;;5021570;28;20212;-73
2023/05/29 05:56:02;;;;;;;7.97;4.60;;;;;;;;;;5021637;28;20181;-72
2023/05/29 05:59:06;;;;;;;8.43;4.73;;;;;;;;;;5033146;28;20181;-73
2023/05/29 06:02:11;;;;;;;7.00;5.03;;;;;;;;;;5033108;28;20228;-73
2023/05/29 06:05:15;;;;;;;9.43;4.80;;;;;;;;;;5033171;28;20177;-73
2023/05/29 06:08:20;;;;;;;9.43;4.80;;;;;;;;;;5010526;28;20181;-73
2023/05/29 06:11:25;;;;;;;11.10;5.70;;;;;;;;;;5032815;28;20173;-73
2023/05/29 06:14:30;;;;;;;7.20;4.67;;;;;;;;;;5033018;28;20181;-73
2023/05/29 06:17:34;;;;;;;7.43;4.37;;;;;;;;;;5032569;28;20184;-73
2023/05/29 06:20:41;;;;;;;17.47;4.70;;;;;;;;;;5032728;28;20210;-73
2023/05/29 06:23:45;;;;;;;9.53;4.23;;;;;;;;;;5021210;28;20209;-73
2023/05/29 06:26:50;;;;;;;7.43;4.40;;;;;;;;;;5032572;28;20624;-73
2023/05/29 06:29:54;;;;;;;6.70;4.23;;;;;;;;;;5021035;28;20184;-73
2023/05/29 06:32:58;;;;;;;6.07;4.20;;;;;;;;;;5032922;28;20216;-73
2023/05/29 06:36:08;;;;;;;7.57;3.97;;;;;;;;;;5022201;28;20185;-73
2023/05/29 06:39:14;;;;;;;8.00;3.93;;;;;;;;;;5032641;28;20184;-73
2023/05/29 06:42:17;;;;;;;10.70;4.13;;;;;;;;;;5021084;28;20236;-73
2023/05/29 06:45:22;;;;;;;6.60;4.30;;;;;;;;;;5032642;28;20640;-73
2023/05/29 06:48:26;;;;;;;5.53;4.03;;;;;;;;;;5009671;28;20533;-73
2023/05/29 06:51:32;;;;;;;7.97;4.27;;;;;;;;;;5032294;28;20180;-73
2023/05/29 06:54:42;;;;;;;7.03;3.90;;;;;;;;;;5032160;28;20184;-73
2023/05/29 06:57:46;;;;;;;7.20;4.00;;;;;;;;;;5033075;28;20176;-73
2023/05/29 07:00:50;;;;;;;6.20;4.10;;;;;;;;;;5032199;28;20172;-73
2023/05/29 07:04:13;;;;;;;19.40;5.67;;;;;;;;;;5032095;28;20169;-73
2023/05/29 07:07:17;;;;;;;6.10;4.00;;;;;;;;;;5031987;28;20544;-73
2023/05/29 07:10:22;;;;;;;4.83;3.40;;;;;;;;;;5032434;28;20189;-73
2023/05/29 07:13:27;;;;;;;8.90;3.93;;;;;;;;;;5036373;28;20204;-73
2023/05/29 07:16:30;;;;;;;4.17;2.97;;;;;;;;;;5036078;28;20177;-73
2023/05/29 07:19:38;;;;;;;8.07;3.40;;;;;;;;;;5036333;28;20632;-73
2023/05/29 07:22:43;;;;;;;11.00;3.47;;;;;;;;;;5036362;28;20229;-74
2023/05/29 07:25:47;;;;;;;9.00;3.33;;;;;;;;;;5035920;28;20305;-73
2023/05/29 07:28:52;;;;;;;7.27;3.40;;;;;;;;;;5037108;28;20572;-73
2023/05/29 07:31:57;;;;;;;6.50;3.20;;;;;;;;;;5035417;28;20189;-72
2023/05/29 07:35:01;;;;;;;14.07;4.03;;;;;;;;;;5035379;28;20552;-73
2023/05/29 07:38:06;;;;;;;5.63;3.50;;;;;;;;;;5024044;28;20181;-72
2023/05/29 07:41:11;;;;;;;5.23;3.40;;;;;;;;;;5035697;28;20632;-71
2023/05/29 07:44:17;;;;;;;5.40;2.77;;;;;;;;;;5024346;28;20514;-71
2023/05/29 07:47:21;;;;;;;6.70;3.27;;;;;;;;;;5035505;28;20173;-71
2023/05/29 07:50:25;;;;;;;5.70;3.13;;;;;;;;;;5035412;28;20205;-71
2023/05/29 07:53:30;;;;;;;10.97;4.07;;;;;;;;;;5035118;28;20219;-71
2023/05/29 07:56:35;;;;;;;11.73;3.30;;;;;;;;;;5023708;28;20195;-72
2023/05/29 07:59:43;;;;;;;6.90;3.13;;;;;;;;;;5035227;28;20173;-72
2023/05/29 08:02:48;;;;;;;9.07;3.37;;;;;;;;;;5034829;28;20566;-72
2023/05/29 08:06:11;;;;;;;4.60;3.20;;;;;;;;;;5035979;28;20181;-72
2023/05/29 08:09:15;;;;;;;12.35;3.40;;;;;;;;;;5034922;28;20185;-72
2023/05/29 08:12:20;;;;;;;51.88;6.65;;;;;;;;;;5035080;28;20689;-71
2023/05/29 08:15:26;;;;;;;9.18;3.30;;;;;;;;;;5024217;28;20179;-72
2023/05/29 08:18:32;;;;;;;75.13;7.53;;;;;;;;;;5034878;28;20184;-72
2023/05/29 08:21:37;;;;;;;6.10;3.78;;;;;;;;;;5035404;28;20186;-72
2023/05/29 08:24:41;;;;;;;6.28;3.72;;;;;;;;;;5034289;28;20178;-72
2023/05/29 08:27:46;;;;;;;9.02;3.70;;;;;;;;;;5035457;28;20184;-73
2023/05/29 08:30:50;;;;;;;6.30;4.00;;;;;;;;;;5035211;28;20184;-72
2023/05/29 08:33:54;;;;;;;6.88;3.60;;;;;;;;;;5034946;28;20219;-72
2023/05/29 08:36:58;;;;;;;6.00;3.55;;;;;;;;;;5022879;28;20212;-73
2023/05/29 08:40:07;;;;;;;16.17;4.57;;;;;;;;;;5035164;28;20636;-73
2023/05/29 08:43:20;;;;;;;6.93;3.20;;;;;;;;;;5034300;28;20698;-73
2023/05/29 08:46:25;;;;;;;14.85;4.57;;;;;;;;;;5022957;28;20179;-73
2023/05/29 08:49:40;;;;;;;16.33;4.45;;;;;;;;;;5034809;28;20616;-73
2023/05/29 08:52:45;;;;;;;6.82;3.90;;;;;;;;;;5034853;28;20565;-73
2023/05/29 08:55:51;;;;;;;5.95;3.88;;;;;;;;;;5034393;28;20199;-73
2023/05/29 08:58:57;;;;;;;6.15;3.40;;;;;;;;;;5034906;28;20188;-73
2023/05/29 09:02:01;;;;;;;7.82;3.83;;;;;;;;;;5035148;28;20193;-73
2023/05/29 09:05:06;;;;;;;5.93;3.60;;;;;;;;;;5034251;28;20178;-72
2023/05/29 09:08:15;;;;;;;12.90;3.90;;;;;;;;;;5033889;28;20185;-73
2023/05/29 09:11:19;;;;;;;9.07;4.07;;;;;;;;;;5035141;28;20182;-73
2023/05/29 09:14:41;;;;;;;7.35;4.05;;;;;;;;;;5034469;28;20193;-73
2023/05/29 09:17:59;;;;;;;7.95;3.80;;;;;;;;;;5034899;28;20184;-73
2023/05/29 09:21:10;;;;;;;4.40;3.40;;;;;;;;;;5033842;28;20185;-74
2023/05/29 09:24:15;;;;;;;6.90;4.18;;;;;;;;;;5033479;28;20213;-74
2023/05/29 09:27:20;;;;;;;10.13;3.78;;;;;;;;;;5033811;28;20178;-74
2023/05/29 09:30:32;;;;;;;27.10;5.43;;;;;;;;;;5034238;28;20185;-74
2023/05/29 09:33:48;;;;;;;6.88;3.90;;;;;;;;;;5033387;28;20225;-74
2023/05/29 09:36:52;;;;;;;6.78;4.05;;;;;;;;;;5033182;28;20629;-74
2023/05/29 09:39:56;;;;;;;7.65;3.60;;;;;;;;;;5033997;28;20193;-74
2023/05/29 09:43:04;;;;;;;5.35;3.50;;;;;;;;;;5033893;28;20565;-74
2023/05/29 09:46:16;;;;;;;5.45;3.58;;;;;;;;;;5037879;22;20177;-71
2023/05/29 09:49:22;;;;;;;6.90;4.03;;;;;;;;;;5012700;28;20752;-72
2023/05/29 09:52:30;;;;;;;8.65;3.83;;;;;;;;;;5014769;28;20217;-71
2023/05/29 09:55:36;;;;;;;7.10;3.75;;;;;;;;;;5002471;28;20178;-72
2023/05/29 09:58:45;;;;;;;6.57;3.53;;;;;;;;;;5002444;28;20178;-72
2023/05/29 10:02:00;;;;;;;10.05;3.97;;;;;;;;;;5002326;28;20197;-72
2023/05/29 10:05:05;;;;;;;6.10;3.42;;;;;;;;;;5014600;28;20229;-72
2023/05/29 10:08:14;;;;;;;5.70;3.60;;;;;;;;;;5014296;28;20190;-72
2023/05/29 10:11:24;;;;;;;52.55;39.33;;;;;;;;;;5014451;28;20186;-72
2023/05/29 10:14:31;;;;;;;47.20;41.53;;;;;;;;;;5014204;28;20691;-71
2023/05/29 10:17:38;;;;;;;7.90;4.00;;;;;;;;;;5000757;28;20699;-72
2023/05/29 10:20:45;;;;;;;6.97;4.13;;;;;;;;;;5013059;28;20680;-71
2023/05/29 10:23:50;;;;;;;6.23;4.00;;;;;;;;;;5000466;28;20767;-71
2023/05/29 10:26:56;;;;;;;10.85;6.13;;;;;;;;;;5013850;28;20186;-71
2023/05/29 10:30:08;;;;;;;6.38;3.78;;;;;;;;;;5013913;28;20174;-71
2023/05/29 10:33:43;;;;;;;4.28;3.50;;;;;;;;;;5013927;28;20217;-71
2023/05/29 10:37:00;;;;;;;5.25;3.63;;;;;;;;;;5002023;28;20629;-71
2023/05/29 10:40:13;;;;;;;6.93;3.75;;;;;;;;;;5013602;28;20178;-71
2023/05/29 10:43:34;;;;;;;5.68;3.30;;;;;;;;;;5013503;28;20222;-71
2023/05/29 10:46:50;;;;;;;20.83;15.20;;;;;;;;;;5013472;28;20692;-71
2023/05/29 10:50:00;;;;;;;9.95;3.30;;;;;;;;;;5014098;28;20192;-72
2023/05/29 10:53:13;;;;;;;5.70;3.55;;;;;;;;;;5012835;28;20612;-71
2023/05/29 10:56:29;;;;;;;6.55;3.22;;;;;;;;;;5002220;28;20198;-71
2023/05/29 10:59:36;;;;;;;5.20;2.85;;;;;;;;;;5002129;28;20559;-71
2023/05/29 11:02:41;;;;;;;6.15;3.30;;;;;;;;;;5013421;28;20218;-71
2023/05/29 11:06:17;;;;;;;5.38;3.30;;;;;;;;;;5013979;28;20501;-72
2023/05/29 11:09:30;;;;;;;3.90;3.28;;;;;;;;;;4990723;28;20182;-71
2023/05/29 11:12:54;;;;;;;4.22;3.00;;;;;;;;;;5002225;28;20226;-71
2023/05/29 11:16:30;;;;;;;4.63;3.53;;;;;;;;;;5013771;28;20182;-71
2023/05/29 11:19:35;;;;;;;12.70;3.50;;;;;;;;;;5012943;28;20181;-71
2023/05/29 11:22:48;;;;;;;4.05;3.30;;;;;;;;;;5013276;28;20221;-71
2023/05/29 11:25:53;;;;;;;6.32;3.30;;;;;;;;;;5013815;28;20186;-72
2023/05/29 11:29:00;;;;;;;5.00;3.40;;;;;;;;;;5002329;28;20182;-72
2023/05/29 11:32:13;;;;;;;4.55;3.20;;;;;;;;;;4990378;28;20217;-71
2023/05/29 11:35:22;;;;;;;4.00;2.60;;;;;;;;;;5001970;28;20190;-71
2023/05/29 11:38:27;;;;;;;6.30;3.03;;;;;;;;;;5013632;28;20186;-71
2023/05/29 11:41:31;;;;;;;4.38;3.03;;;;;;;;;;5001666;28;20178;-71
2023/05/29 11:44:36;;;;;;;4.05;3.03;;;;;;;;;;4990907;28;20667;-71
2023/05/29 11:48:00;;;;;;;27.13;3.88;;;;;;;;;;5014385;28;20245;-71
2023/05/29 11:51:05;;;;;;;4.88;2.80;;;;;;;;;;5013766;28;20178;-71
2023/05/29 11:54:12;;;;;;;5.43;2.92;;;;;;;;;;5013592;28;20198;-71
2023/05/29 11:57:20;;;;;;;8.43;3.25;;;;;;;;;;5001359;28;20182;-72
2023/05/29 12:00:26;;;;;;;6.10;2.95;;;;;;;;;;5016683;28;20625;-71
2023/05/29 12:03:30;;;;;;;9.00;2.88;;;;;;;;;;5016454;28;20218;-71
2023/05/29 12:06:38;;;;;;;3.90;2.75;;;;;;;;;;5004313;28;20201;-72
2023/05/29 12:09:42;;;;;;;4.97;2.92;;;;;;;;;;5004781;28;20186;-72
2023/05/29 12:12:47;;;;;;;4.22;3.05;;;;;;;;;;5006080;28;20217;-71
2023/05/29 12:15:56;;;;;;;3.95;2.67;;;;;;;;;;5016758;28;20513;-71
2023/05/29 12:19:00;;;;;;;6.40;3.13;;;;;;;;;;5004529;28;20205;-72
2023/05/29 12:22:05;;;;;;;4.20;2.78;;;;;;;;;;5015459;28;20229;-72
2023/05/29 12:25:13;;;;;;;4.57;2.95;;;;;;;;;;5003978;28;20206;-72
2023/05/29 12:28:20;;;;;;;6.78;3.00;;;;;;;;;;5004530;28;20182;-71
2023/05/29 12:31:29;;;;;;;3.50;2.70;;;;;;;;;;5016835;28;20182;-71
2023/05/29 12:34:36;;;;;;;6.40;2.65;;;;;;;;;;5016181;28;20505;-71
2023/05/29 12:38:05;;;;;;;9.27;2.85;;;;;;;;;;5015388;28;20178;-71
2023/05/29 12:41:09;;;;;;;3.92;2.90;;;;;;;;;;5015884;28;20181;-71
2023/05/29 12:44:13;;;;;;;5.15;2.70;;;;;;;;;;5018013;28;20202;-71
2023/05/29 12:47:23;;;;;;;4.72;2.90;;;;;;;;;;5004187;28;20209;-71
2023/05/29 12:50:30;;;;;;;6.13;2.72;;;;;;;;;;5015925;28;20186;-71
2023/05/29 12:53:34;;;;;;;4.97;2.55;;;;;;;;;;5015006;28;20214;-71
2023/05/29 12:56:41;;;;;;;6.95;2.83;;;;;;;;;;5015790;28;20177;-71
2023/05/29 12:59:46;;;;;;;3.67;2.88;;;;;;;;;;5003569;28;20282;-71
2023/05/29 13:02:51;;;;;;;5.45;2.72;;;;;;;;;;4982099;28;20209;-71
2023/05/29 13:05:55;;;;;;;5.25;2.75;;;;;;;;;;5004379;28;20534;-71
2023/05/29 13:08:59;;;;;;;4.20;2.40;;;;;;;;;;5015281;28;20644;-71
2023/05/29 13:12:05;;;;;;;4.32;2.90;;;;;;;;;;5003208;28;20186;-71
2023/05/29 13:15:11;;;;;;;4.88;2.35;;;;;;;;;;5014901;28;20174;-72
2023/05/29 13:18:15;;;;;;;4.38;2.50;;;;;;;;;;5003560;28;20517;-71
2023/05/29 13:21:19;;;;;;;4.50;2.10;;;;;;;;;;5014842;28;20205;-71
2023/05/29 13:24:24;;;;;;;4.25;2.53;;;;;;;;;;5014015;28;20206;-71
2023/05/29 13:27:28;;;;;;;4.38;2.58;;;;;;;;;;5015013;28;20183;-71
2023/05/29 13:30:32;;;;;;;3.67;2.63;;;;;;;;;;5005372;28;20190;-71
2023/05/29 13:33:36;;;;;;;5.38;2.58;;;;;;;;;;5003280;28;20333;-71
2023/05/29 13:36:41;;;;;;;4.43;2.28;;;;;;;;;;5014937;28;20174;-71
2023/05/29 13:39:45;;;;;;;6.45;2.67;;;;;;;;;;5015193;28;20193;-71
2023/05/29 13:42:49;;;;;;;5.28;2.50;;;;;;;;;;5014601;28;20571;-71
2023/05/29 13:45:53;;;;;;;4.72;2.30;;;;;;;;;;5013992;28;20174;-71
2023/05/29 13:48:57;;;;;;;4.82;2.30;;;;;;;;;;5014790;28;20193;-72
2023/05/29 13:52:03;;;;;;;3.85;2.25;;;;;;;;;;5015997;28;20178;-72
2023/05/29 13:55:08;;;;;;;4.70;2.88;;;;;;;;;;5014193;28;20664;-72
2023/05/29 13:58:12;;;;;;;6.28;2.70;;;;;;;;;;4991256;28;20197;-72
2023/05/29 14:01:19;;;;;;;5.82;2.55;;;;;;;;;;5015325;28;20205;-72
2023/05/29 14:04:24;;;;;;;3.42;2.22;;;;;;;;;;5014713;28;20201;-72
2023/05/29 14:07:28;;;;;;;5.72;2.28;;;;;;;;;;5014676;28;20206;-71
2023/05/29 14:10:33;;;;;;;5.43;2.65;;;;;;;;;;5013966;28;20182;-72
2023/05/29 14:13:37;;;;;;;6.30;2.50;;;;;;;;;;5014518;28;20213;-72
2023/05/29 14:16:41;;;;;;;9.95;3.05;;;;;;;;;;5001539;28;20201;-72
2023/05/29 14:19:47;;;;;;;3.47;2.63;;;;;;;;;;5014352;28;20186;-71
2023/05/29 14:22:51;;;;;;;7.88;2.70;;;;;;;;;;5014056;28;20221;-72
2023/05/29 14:25:55;;;;;;;5.10;2.47;;;;;;;;;;5016285;28;20178;-72
2023/05/29 14:28:59;;;;;;;2.65;2.30;;;;;;;;;;5002979;28;20193;-71
2023/05/29 14:32:04;;;;;;;6.28;2.50;;;;;;;;;;5013897;28;20197;-71
2023/05/29 14:35:08;;;;;;;4.03;2.42;;;;;;;;;;5013247;28;20194;-72
2023/05/29 14:38:12;;;;;;;2.60;1.88;;;;;;;;;;5013982;28;20201;-71
2023/05/29 14:41:16;;;;;;;4.40;2.55;;;;;;;;;;5013937;28;20502;-71
2023/05/29 14:44:20;;;;;;;5.47;2.47;;;;;;;;;;5001553;28;20553;-71
2023/05/29 14:47:24;;;;;;;5.60;2.33;;;;;;;;;;5013591;28;20205;-71
2023/05/29 14:50:28;;;;;;;3.28;2.38;;;;;;;;;;5001612;28;20178;-71
2023/05/29 14:53:32;;;;;;;9.25;2.40;;;;;;;;;;5013619;28;20700;-71
2023/05/29 14:56:37;;;;;;;4.63;2.60;;;;;;;;;;5013282;28;20193;-71
2023/05/29 14:59:41;;;;;;;2.55;2.03;;;;;;;;;;5013761;28;20185;-71
2023/05/29 15:02:45;;;;;;;4.30;2.75;;;;;;;;;;5013446;28;20581;-70
2023/05/29 15:05:49;;;;;;;4.05;2.15;;;;;;;;;;5013391;28;20201;-71
2023/05/29 15:08:55;;;;;;;3.28;2.58;;;;;;;;;;5013331;28;20186;-71
2023/05/29 15:12:00;;;;;;;4.10;2.60;;;;;;;;;;5013390;28;20629;-71
2023/05/29 15:15:05;;;;;;;3.75;2.40;;;;;;;;;;5013066;28;20178;-71
2023/05/29 15:18:09;;;;;;;3.35;2.40;;;;;;;;;;5001178;28;20189;-71
2023/05/29 15:21:13;;;;;;;2.80;2.10;;;;;;;;;;5013065;28;20189;-71
2023/05/29 15:24:18;;;;;;;2.55;2.35;;;;;;;;;;5013403;28;20209;-71
2023/05/29 15:27:21;;;;;;;6.85;2.80;;;;;;;;;;4990317;28;20626;-71
2023/05/29 15:30:26;;;;;;;6.10;2.58;;;;;;;;;;5014211;28;20181;-71
2023/05/29 15:33:30;;;;;;;6.05;2.60;;;;;;;;;;5002914;28;20564;-71
2023/05/29 15:36:36;;;;;;;5.45;2.40;;;;;;;;;;5005535;28;20182;-71
2023/05/29 15:39:40;;;;;;;3.88;2.75;;;;;;;;;;5016957;28;20180;-71
2023/05/29 15:42:44;;;;;;;5.22;4.15;;;;;;;;;;5004892;28;20222;-70
2023/05/29 15:45:48;;;;;;;8.50;3.65;;;;;;;;;;5016847;28;20545;-71
2023/05/29 15:48:53;;;;;;;11.27;3.10;;;;;;;;;;5017371;28;20191;-71
2023/05/29 15:51:57;;;;;;;4.13;2.42;;;;;;;;;;5017123;28;20527;-71
2023/05/29 15:55:01;;;;;;;11.45;2.40;;;;;;;;;;5016912;28;20186;-70
2023/05/29 15:58:08;;;;;;;7.05;2.90;;;;;;;;;;5006925;28;20175;-71
2023/05/29 16:01:12;;;;;;;11.65;3.10;;;;;;;;;;5017461;28;20173;-71
2023/05/29 16:04:17;;;;;;;4.97;2.55;;;;;;;;;;5017082;28;20179;-71
2023/05/29 16:07:21;;;;;;;4.65;2.80;;;;;;;;;;5016854;28;20521;-71
2023/05/29 16:10:26;;;;;;;3.67;2.47;;;;;;;;;;5016712;28;20522;-72
2023/05/29 16:13:32;;;;;;;3.88;2.55;;;;;;;;;;5015983;28;20218;-71
2023/05/29 16:16:37;;;;;;;3.75;2.70;;;;;;;;;;5017743;28;20196;-71
2023/05/29 16:19:41;;;;;;;3.92;2.92;;;;;;;;;;4992696;28;20525;-71
2023/05/29 16:22:46;;;;;;;5.88;2.70;;;;;;;;;;5015889;28;20211;-71
2023/05/29 16:25:51;;;;;;;4.37;2.43;;;;;;;;;;5034488;22;20227;-72
2023/05/29 16:29:01;;;;;;;3.73;2.60;;;;;;;;;;5046648;28;20191;-73
2023/05/29 16:32:05;;;;;;;4.13;2.80;;;;;;;;;;5046168;28;20220;-73
2023/05/29 16:35:09;;;;;;;4.13;2.90;;;;;;;;;;5034510;28;20194;-72
2023/05/29 16:38:14;;;;;;;5.67;2.70;;;;;;;;;;5034645;28;20201;-72
2023/05/29 16:41:17;;;;;;;8.07;2.97;;;;;;;;;;5035313;28;20184;-72
2023/05/29 16:44:22;;;;;;;17.50;3.57;;;;;;;;;;5034893;28;20185;-72
2023/05/29 16:47:26;;;;;;;5.27;2.83;;;;;;;;;;5035049;28;20668;-73
2023/05/29 16:50:30;;;;;;;5.87;2.63;;;;;;;;;;5031393;28;20526;-73
2023/05/29 16:53:35;;;;;;;6.10;2.87;;;;;;;;;;5031895;28;20216;-73
2023/05/29 16:56:39;;;;;;;7.87;2.90;;;;;;;;;;5033027;28;20185;-73
2023/05/29 16:59:43;;;;;;;8.40;3.00;;;;;;;;;;5024283;28;20185;-73
2023/05/29 17:02:48;;;;;;;4.40;2.60;;;;;;;;;;5031579;28;20219;-73
2023/05/29 17:05:53;;;;;;;3.13;2.10;;;;;;;;;;5031380;28;20208;-72
2023/05/29 17:08:57;;;;;;;3.50;2.77;;;;;;;;;;5032774;28;20201;-72
2023/05/29 17:12:01;;;;;;;5.63;3.20;;;;;;;;;;5033187;28;20187;-73
2023/05/29 17:15:06;;;;;;;4.27;2.93;;;;;;;;;;5031095;28;20187;-74
2023/05/29 17:18:10;;;;;;;3.90;3.10;;;;;;;;;;5030882;28;20179;-72
2023/05/29 17:21:14;;;;;;;9.03;3.13;;;;;;;;;;5032213;28;20206;-72
2023/05/29 17:24:18;;;;;;;5.77;3.20;;;;;;;;;;5033165;28;20206;-72
2023/05/29 17:27:22;;;;;;;3.57;2.83;;;;;;;;;;5030406;28;20201;-74
2023/05/29 17:30:27;;;;;;;6.00;3.30;;;;;;;;;;5034517;28;20186;-74
2023/05/29 17:33:31;;;;;;;6.00;2.73;;;;;;;;;;5033615;28;20218;-74
2023/05/29 17:36:35;;;;;;;7.43;3.07;;;;;;;;;;5034357;28;20173;-71
2023/05/29 17:39:39;;;;;;;5.53;2.70;;;;;;;;;;5034094;28;20640;-71
2023/05/29 17:42:43;;;;;;;7.90;3.27;;;;;;;;;;5034141;28;20215;-73
2023/05/29 17:45:51;;;;;;;5.13;2.70;;;;;;;;;;5033910;28;20216;-72
2023/05/29 17:48:56;;;;;;;4.03;2.83;;;;;;;;;;5033912;28;20206;-72
2023/05/29 17:52:00;;;;;;;8.30;3.70;;;;;;;;;;5033213;28;20173;-73
2023/05/29 17:55:06;;;;;;;4.20;2.83;;;;;;;;;;5032890;28;20181;-74
2023/05/29 17:58:10;;;;;;;4.47;3.17;;;;;;;;;;5033678;28;20177;-74
2023/05/29 18:01:14;;;;;;;6.00;3.00;;;;;;;;;;5044253;28;20176;-74
2023/05/29 18:04:18;;;;;;;4.60;3.10;;;;;;;;;;5033691;28;20181;-74
2023/05/29 18:07:22;;;;;;;5.40;3.27;;;;;;;;;;5034015;28;20165;-73
2023/05/29 18:10:26;;;;;;;4.53;3.13;;;;;;;;;;5033704;28;20173;-74
2023/05/29 18:13:30;;;;;;;6.77;3.20;;;;;;;;;;5032750;28;20209;-74
2023/05/29 18:16:35;;;;;;;6.47;3.20;;;;;;;;;;5033620;28;20177;-74
2023/05/29 18:19:40;;;;;;;5.73;2.97;;;;;;;;;;5033426;28;20185;-73
2023/05/29 18:22:44;;;;;;;6.60;3.23;;;;;;;;;;5033664;28;20667;-74
2023/05/29 18:25:48;;;;;;;5.07;2.83;;;;;;;;;;5033279;28;20224;-74
2023/05/29 18:28:54;;;;;;;7.47;3.17;;;;;;;;;;5044063;28;20181;-73
2023/05/29 18:31:58;;;;;;;4.93;3.20;;;;;;;;;;5033459;28;20181;-74
2023/05/29 18:35:02;;;;;;;5.53;3.03;;;;;;;;;;5044008;28;20181;-74